Time;durP1;ratioP1;P1;durP2;ratioP2;P2;SDS_P1;SDS_P2;PMS_P1;PMS_P2;Temp;Humidity;BMP_temperature;BMP_pressure;BME280_temperature;BME280_humidity;BME280_pressure;Samples;Min_cycle;Max_cycle;Signal;HPM_P1;HPM_P2
2021/04/27 00:01:38;;;;;;;2.97;1.30;;;;;;;;;;5088152;28;20422;-68
2021/04/27 00:04:03;;;;;;;3.53;1.60;;;;;;;;;;5084156;28;20058;-68
2021/04/27 00:06:29;;;;;;;3.60;1.37;;;;;;;;;;5085690;28;20089;-68
2021/04/27 00:08:54;;;;;;;3.87;1.17;;;;;;;;;;5089335;28;20059;-68
2021/04/27 00:11:19;;;;;;;2.23;1.10;;;;;;;;;;5089080;28;20028;-68
2021/04/27 00:13:45;;;;;;;2.73;1.30;;;;;;;;;;5090672;28;20408;-68
2021/04/27 00:16:10;;;;;;;2.70;1.30;;;;;;;;;;5092201;28;20008;-68
2021/04/27 00:18:35;;;;;;;3.90;1.50;;;;;;;;;;5092892;28;20132;-68
2021/04/27 00:21:00;;;;;;;3.47;1.20;;;;;;;;;;5085087;28;20032;-68
2021/04/27 00:23:26;;;;;;;2.77;1.40;;;;;;;;;;5089306;28;20043;-68
2021/04/27 00:25:51;;;;;;;7.10;1.30;;;;;;;;;;5092667;28;20134;-69
2021/04/27 00:28:16;;;;;;;2.33;1.10;;;;;;;;;;5091154;28;20034;-68
2021/04/27 00:30:41;;;;;;;2.63;1.30;;;;;;;;;;5092200;28;20035;-68
2021/04/27 00:33:07;;;;;;;4.03;1.40;;;;;;;;;;5087089;28;20372;-68
2021/04/27 00:35:33;;;;;;;2.10;1.10;;;;;;;;;;5088087;28;20027;-68
2021/04/27 00:37:59;;;;;;;3.50;1.03;;;;;;;;;;5092877;28;20027;-68
2021/04/27 00:40:24;;;;;;;5.10;1.93;;;;;;;;;;5091375;28;20052;-68
2021/04/27 00:42:50;;;;;;;3.37;1.70;;;;;;;;;;5083743;28;20464;-68
2021/04/27 00:45:19;;;;;;;2.87;1.10;;;;;;;;;;5091674;28;20020;-68
2021/04/27 00:47:45;;;;;;;2.60;1.13;;;;;;;;;;5090557;28;20020;-68
2021/04/27 00:50:12;;;;;;;2.07;1.00;;;;;;;;;;5090138;28;20357;-68
2021/04/27 00:52:38;;;;;;;2.03;1.10;;;;;;;;;;5090177;28;20023;-68
2021/04/27 00:55:04;;;;;;;2.73;1.30;;;;;;;;;;5092414;28;20910;-68
2021/04/27 00:57:30;;;;;;;4.23;1.10;;;;;;;;;;5089801;28;20020;-68
2021/04/27 00:59:57;;;;;;;4.80;1.23;;;;;;;;;;5093505;28;20245;-68
2021/04/27 01:02:22;;;;;;;3.47;1.10;;;;;;;;;;5088594;28;20028;-68
2021/04/27 01:04:48;;;;;;;4.17;1.30;;;;;;;;;;5090674;28;20282;-68
2021/04/27 01:07:16;;;;;;;2.87;1.60;;;;;;;;;;5088401;28;20028;-68
2021/04/27 01:09:43;;;;;;;3.07;1.30;;;;;;;;;;5091544;28;20020;-68
2021/04/27 01:12:14;;;;;;;3.20;1.20;;;;;;;;;;5093208;28;20264;-68
2021/04/27 01:14:49;;;;;;;5.87;1.60;;;;;;;;;;5094423;28;20284;-68
2021/04/27 01:17:16;;;;;;;2.27;1.50;;;;;;;;;;5096476;28;20610;-68
2021/04/27 01:19:45;;;;;;;2.60;1.10;;;;;;;;;;5086821;28;20263;-68
2021/04/27 01:22:12;;;;;;;2.13;1.10;;;;;;;;;;5091870;28;20250;-68
2021/04/27 01:24:50;;;;;;;2.50;1.10;;;;;;;;;;5092244;28;20761;-68
2021/04/27 01:27:15;;;;;;;2.43;0.90;;;;;;;;;;5091019;28;20309;-68
2021/04/27 01:29:41;;;;;;;1.77;0.90;;;;;;;;;;5088193;28;20360;-68
2021/04/27 01:32:07;;;;;;;2.77;1.47;;;;;;;;;;5084227;28;20047;-68
2021/04/27 01:34:34;;;;;;;4.53;1.23;;;;;;;;;;5090191;28;20028;-68
2021/04/27 01:37:00;;;;;;;2.40;1.20;;;;;;;;;;5089144;28;20021;-68
2021/04/27 01:39:27;;;;;;;1.87;1.07;;;;;;;;;;5092428;28;20246;-68
2021/04/27 01:41:56;;;;;;;2.83;1.27;;;;;;;;;;5090106;28;20035;-68
2021/04/27 01:44:21;;;;;;;2.20;1.07;;;;;;;;;;5091838;28;20254;-68
2021/04/27 01:46:47;;;;;;;2.43;1.10;;;;;;;;;;5088895;28;20284;-68
2021/04/27 01:49:12;;;;;;;5.13;1.57;;;;;;;;;;5091989;28;20024;-68
2021/04/27 01:51:38;;;;;;;2.73;1.20;;;;;;;;;;5089311;28;20020;-68
2021/04/27 01:54:04;;;;;;;2.33;1.20;;;;;;;;;;5088358;28;20102;-68
2021/04/27 01:56:29;;;;;;;3.57;1.10;;;;;;;;;;5090746;28;20016;-68
2021/04/27 01:58:54;;;;;;;8.63;1.20;;;;;;;;;;5091988;28;20096;-68
2021/04/27 02:01:20;;;;;;;1.93;1.10;;;;;;;;;;5091425;28;20099;-68
2021/04/27 02:03:47;;;;;;;1.80;1.10;;;;;;;;;;5091323;28;20097;-68
2021/04/27 02:06:12;;;;;;;1.83;0.90;;;;;;;;;;5087259;28;20095;-68
2021/04/27 02:08:39;;;;;;;2.90;1.10;;;;;;;;;;5089274;28;20349;-68
2021/04/27 02:11:05;;;;;;;2.33;1.00;;;;;;;;;;5088313;28;20052;-68
2021/04/27 02:13:30;;;;;;;2.77;1.20;;;;;;;;;;5091313;28;20263;-68
2021/04/27 02:15:56;;;;;;;3.43;1.30;;;;;;;;;;5089389;28;20875;-68
2021/04/27 02:18:29;;;;;;;3.47;1.30;;;;;;;;;;5086827;28;20036;-68
2021/04/27 02:20:57;;;;;;;3.77;1.40;;;;;;;;;;5088809;28;20480;-68
2021/04/27 02:23:23;;;;;;;3.03;1.30;;;;;;;;;;5087541;28;20676;-68
2021/04/27 02:25:48;;;;;;;3.40;1.30;;;;;;;;;;5091267;28;20268;-68
2021/04/27 02:28:14;;;;;;;3.53;1.27;;;;;;;;;;5089946;28;20019;-68
2021/04/27 02:30:39;;;;;;;3.90;1.30;;;;;;;;;;5090530;28;20040;-68
2021/04/27 02:33:05;;;;;;;5.50;1.60;;;;;;;;;;5088344;28;20053;-66
2021/04/27 02:35:31;;;;;;;4.23;1.73;;;;;;;;;;5090971;28;20038;-66
2021/04/27 02:37:56;;;;;;;3.37;1.20;;;;;;;;;;5092476;28;20016;-66
2021/04/27 02:40:23;;;;;;;3.33;1.50;;;;;;;;;;5082385;28;20027;-68
2021/04/27 02:42:50;;;;;;;4.03;1.40;;;;;;;;;;5087932;28;20039;-68
2021/04/27 02:45:15;;;;;;;3.10;1.20;;;;;;;;;;5089903;28;20269;-68
2021/04/27 02:47:40;;;;;;;3.17;1.07;;;;;;;;;;5089512;28;20331;-68
2021/04/27 02:50:06;;;;;;;2.80;1.30;;;;;;;;;;5089402;28;20024;-68
2021/04/27 02:52:31;;;;;;;3.00;1.20;;;;;;;;;;5089814;28;20020;-68
2021/04/27 02:54:56;;;;;;;3.87;1.23;;;;;;;;;;5089535;28;20020;-68
2021/04/27 02:57:22;;;;;;;3.53;1.20;;;;;;;;;;5089205;28;20020;-68
2021/04/27 02:59:47;;;;;;;3.53;1.93;;;;;;;;;;5089179;28;20035;-68
2021/04/27 03:02:12;;;;;;;2.20;1.07;;;;;;;;;;5090763;28;20424;-68
2021/04/27 03:04:40;;;;;;;3.07;1.30;;;;;;;;;;5089571;28;20047;-68
2021/04/27 03:07:05;;;;;;;3.73;1.30;;;;;;;;;;5088101;28;20023;-68
2021/04/27 03:09:31;;;;;;;1.83;1.10;;;;;;;;;;5084654;28;20274;-68
2021/04/27 03:11:56;;;;;;;2.93;1.10;;;;;;;;;;5089415;28;20173;-68
2021/04/27 03:14:21;;;;;;;3.93;1.20;;;;;;;;;;5085597;28;20032;-67
2021/04/27 03:16:46;;;;;;;4.60;1.17;;;;;;;;;;5088270;28;20016;-68
2021/04/27 03:19:12;;;;;;;2.90;1.40;;;;;;;;;;5085941;28;20016;-68
2021/04/27 03:21:37;;;;;;;2.33;1.20;;;;;;;;;;5086945;28;20020;-67
2021/04/27 03:24:02;;;;;;;2.33;1.20;;;;;;;;;;5088605;28;20039;-68
2021/04/27 03:26:28;;;;;;;4.57;1.50;;;;;;;;;;5088047;28;20781;-67
2021/04/27 03:28:53;;;;;;;4.03;1.57;;;;;;;;;;5081373;28;20054;-67
2021/04/27 03:31:18;;;;;;;3.63;1.30;;;;;;;;;;5089944;28;20060;-68
2021/04/27 03:33:44;;;;;;;4.47;1.37;;;;;;;;;;5087395;28;20020;-68
2021/04/27 03:36:09;;;;;;;3.33;1.30;;;;;;;;;;5085027;28;20434;-68
2021/04/27 03:38:35;;;;;;;5.27;1.43;;;;;;;;;;5086561;28;20058;-68
2021/04/27 03:41:01;;;;;;;2.77;1.37;;;;;;;;;;5085310;28;20028;-68
2021/04/27 03:43:26;;;;;;;5.33;1.17;;;;;;;;;;5088820;28;20028;-68
2021/04/27 03:45:51;;;;;;;2.97;1.10;;;;;;;;;;5087136;28;20059;-68
2021/04/27 03:48:18;;;;;;;3.10;1.10;;;;;;;;;;5092067;28;20054;-68
2021/04/27 03:50:44;;;;;;;5.30;1.63;;;;;;;;;;5092773;28;20034;-68
2021/04/27 03:53:09;;;;;;;8.80;1.70;;;;;;;;;;5094137;28;20250;-68
2021/04/27 03:55:35;;;;;;;3.40;1.47;;;;;;;;;;5090638;28;20049;-68
2021/04/27 03:58:01;;;;;;;4.13;1.33;;;;;;;;;;5095106;28;20035;-68
2021/04/27 04:00:26;;;;;;;3.80;1.20;;;;;;;;;;5091100;28;20020;-68
2021/04/27 04:02:51;;;;;;;3.53;1.27;;;;;;;;;;5092267;28;20100;-68
2021/04/27 04:05:18;;;;;;;3.00;1.63;;;;;;;;;;5093203;28;20462;-68
2021/04/27 04:07:43;;;;;;;3.63;1.10;;;;;;;;;;5085159;28;20425;-68
2021/04/27 04:10:09;;;;;;;5.23;1.60;;;;;;;;;;5091807;28;20304;-68
2021/04/27 04:12:36;;;;;;;3.57;1.57;;;;;;;;;;5094327;28;20491;-68
2021/04/27 04:15:01;;;;;;;5.70;1.80;;;;;;;;;;5088909;28;20329;-68
2021/04/27 04:17:26;;;;;;;3.27;1.30;;;;;;;;;;5090802;28;20304;-68
2021/04/27 04:19:51;;;;;;;6.90;1.50;;;;;;;;;;5089273;28;20031;-68
2021/04/27 04:22:17;;;;;;;3.63;1.50;;;;;;;;;;5092749;28;20024;-68
2021/04/27 04:24:42;;;;;;;5.07;1.90;;;;;;;;;;5093441;28;20024;-68
2021/04/27 04:27:08;;;;;;;5.07;1.80;;;;;;;;;;5088974;28;20031;-68
2021/04/27 04:29:33;;;;;;;4.60;1.90;;;;;;;;;;5089834;28;20024;-68
2021/04/27 04:31:58;;;;;;;5.00;2.00;;;;;;;;;;5091803;28;20032;-68
2021/04/27 04:34:23;;;;;;;10.00;2.40;;;;;;;;;;5090158;28;20038;-68
2021/04/27 04:36:49;;;;;;;8.83;3.17;;;;;;;;;;5093309;28;20032;-68
2021/04/27 04:39:14;;;;;;;10.10;3.43;;;;;;;;;;5089487;28;20146;-68
2021/04/27 04:41:39;;;;;;;11.03;3.50;;;;;;;;;;5091648;28;20029;-68
2021/04/27 04:44:05;;;;;;;7.47;2.20;;;;;;;;;;5095950;28;20099;-68
2021/04/27 04:46:30;;;;;;;4.93;1.87;;;;;;;;;;5090514;28;20031;-68
2021/04/27 04:48:56;;;;;;;4.73;1.80;;;;;;;;;;5092855;28;20024;-68
2021/04/27 04:51:21;;;;;;;3.87;1.60;;;;;;;;;;5090284;28;20012;-66
2021/04/27 04:53:46;;;;;;;4.20;1.70;;;;;;;;;;5087531;28;20028;-66
2021/04/27 04:56:12;;;;;;;9.03;3.20;;;;;;;;;;5090063;28;20016;-66
2021/04/27 04:58:37;;;;;;;4.10;1.70;;;;;;;;;;5088452;28;20020;-68
2021/04/27 05:01:03;;;;;;;6.53;1.90;;;;;;;;;;5090415;28;20281;-68
2021/04/27 05:03:29;;;;;;;6.73;2.43;;;;;;;;;;5086709;28;20016;-68
2021/04/27 05:05:54;;;;;;;7.10;2.60;;;;;;;;;;5091909;28;20032;-68
2021/04/27 05:08:24;;;;;;;7.07;2.67;;;;;;;;;;5090318;28;20279;-68
2021/04/27 05:10:50;;;;;;;5.50;1.90;;;;;;;;;;5084715;28;20371;-69
2021/04/27 05:13:15;;;;;;;5.43;1.70;;;;;;;;;;5090567;28;20754;-69
2021/04/27 05:15:40;;;;;;;7.30;2.03;;;;;;;;;;5091768;28;20078;-68
2021/04/27 05:18:06;;;;;;;9.77;3.43;;;;;;;;;;5085447;28;20113;-69
2021/04/27 05:20:32;;;;;;;4.90;1.50;;;;;;;;;;5089476;28;20026;-69
2021/04/27 05:22:57;;;;;;;6.70;2.10;;;;;;;;;;5090771;28;20266;-69
2021/04/27 05:25:22;;;;;;;3.73;1.70;;;;;;;;;;5086963;28;20093;-70
2021/04/27 05:27:47;;;;;;;2.80;1.37;;;;;;;;;;5091125;28;20036;-68
2021/04/27 05:30:13;;;;;;;5.50;1.43;;;;;;;;;;5091035;28;20024;-68
2021/04/27 05:32:39;;;;;;;4.20;1.53;;;;;;;;;;5089254;28;20028;-69
2021/04/27 05:35:05;;;;;;;2.47;1.10;;;;;;;;;;5090863;28;20479;-69
2021/04/27 05:37:30;;;;;;;3.93;1.07;;;;;;;;;;5090088;28;20061;-70
2021/04/27 05:39:55;;;;;;;2.73;1.23;;;;;;;;;;5088358;28;20103;-70
2021/04/27 05:42:20;;;;;;;2.53;1.00;;;;;;;;;;5090642;28;20052;-71
2021/04/27 05:44:46;;;;;;;3.13;1.10;;;;;;;;;;5090932;28;20043;-71
2021/04/27 05:47:11;;;;;;;4.70;1.10;;;;;;;;;;5091585;28;20038;-71
2021/04/27 05:49:37;;;;;;;2.13;0.97;;;;;;;;;;5090647;28;20717;-71
2021/04/27 05:52:02;;;;;;;2.30;0.97;;;;;;;;;;5089905;28;20499;-71
2021/04/27 05:54:28;;;;;;;4.77;1.47;;;;;;;;;;5089176;28;20024;-71
2021/04/27 05:56:53;;;;;;;4.37;0.90;;;;;;;;;;5090057;28;20028;-72
2021/04/27 05:59:18;;;;;;;7.20;1.17;;;;;;;;;;5087821;28;20119;-72
2021/04/27 06:01:43;;;;;;;1.70;0.77;;;;;;;;;;5091032;28;20024;-71
2021/04/27 06:04:09;;;;;;;1.87;0.87;;;;;;;;;;5081922;28;20049;-72
2021/04/27 06:06:35;;;;;;;2.87;1.10;;;;;;;;;;5071490;28;20123;-72
2021/04/27 06:09:04;;;;;;;5.40;1.27;;;;;;;;;;5067919;28;20451;-72
2021/04/27 06:11:30;;;;;;;3.03;1.10;;;;;;;;;;5078723;28;20020;-72
2021/04/27 06:13:55;;;;;;;3.60;1.30;;;;;;;;;;5069708;28;20051;-73
2021/04/27 06:16:20;;;;;;;3.37;1.20;;;;;;;;;;5068966;28;20109;-72
2021/04/27 06:18:46;;;;;;;1.83;0.90;;;;;;;;;;5066843;28;20032;-73
2021/04/27 06:21:12;;;;;;;3.13;0.87;;;;;;;;;;5069438;28;20475;-74
2021/04/27 06:23:38;;;;;;;2.20;0.87;;;;;;;;;;5071593;28;20033;-74
2021/04/27 06:26:03;;;;;;;2.33;0.80;;;;;;;;;;5071099;28;20469;-74
2021/04/27 06:28:28;;;;;;;1.50;0.90;;;;;;;;;;5068629;28;20100;-74
2021/04/27 06:30:53;;;;;;;3.13;0.90;;;;;;;;;;5072182;28;20483;-74
2021/04/27 06:33:19;;;;;;;2.63;0.70;;;;;;;;;;5068648;28;20032;-74
2021/04/27 06:35:44;;;;;;;3.83;1.20;;;;;;;;;;5068600;28;20036;-73
2021/04/27 06:38:10;;;;;;;1.87;1.03;;;;;;;;;;5068258;28;20377;-72
2021/04/27 06:40:37;;;;;;;2.63;1.00;;;;;;;;;;5069848;28;20102;-70
2021/04/27 06:43:02;;;;;;;4.40;1.10;;;;;;;;;;5071455;28;20024;-70
2021/04/27 06:45:27;;;;;;;4.33;1.00;;;;;;;;;;5068122;28;20381;-72
2021/04/27 06:47:53;;;;;;;2.13;1.10;;;;;;;;;;5071165;28;20036;-73
2021/04/27 06:50:19;;;;;;;3.17;1.00;;;;;;;;;;5073004;28;20031;-74
2021/04/27 06:52:45;;;;;;;3.67;1.20;;;;;;;;;;5068990;28;20028;-74
2021/04/27 06:55:11;;;;;;;3.70;0.93;;;;;;;;;;5068851;28;20059;-74
2021/04/27 06:57:37;;;;;;;3.63;1.37;;;;;;;;;;5072007;28;20029;-75
2021/04/27 07:00:03;;;;;;;6.17;1.10;;;;;;;;;;5070386;28;20119;-73
2021/04/27 07:02:28;;;;;;;3.67;1.13;;;;;;;;;;5075634;28;20016;-73
2021/04/27 07:04:54;;;;;;;4.70;0.80;;;;;;;;;;5078242;28;20056;-72
2021/04/27 07:07:19;;;;;;;2.67;1.20;;;;;;;;;;5087697;28;20032;-71
2021/04/27 07:09:44;;;;;;;1.77;0.90;;;;;;;;;;5088013;28;20023;-72
2021/04/27 07:12:09;;;;;;;4.67;1.10;;;;;;;;;;5088656;28;20114;-73
2021/04/27 07:14:35;;;;;;;4.00;1.40;;;;;;;;;;5090056;28;20111;-73
2021/04/27 07:17:00;;;;;;;4.47;1.00;;;;;;;;;;5085510;28;20464;-74
2021/04/27 07:19:26;;;;;;;2.70;1.30;;;;;;;;;;5083761;28;20050;-73
2021/04/27 07:21:51;;;;;;;2.97;1.10;;;;;;;;;;5085666;28;20016;-72
2021/04/27 07:24:16;;;;;;;3.70;1.10;;;;;;;;;;5090901;28;20070;-73
2021/04/27 07:26:42;;;;;;;3.43;1.17;;;;;;;;;;5082812;28;20107;-74
2021/04/27 07:29:08;;;;;;;1.90;0.80;;;;;;;;;;5084654;28;20028;-74
2021/04/27 07:31:33;;;;;;;2.87;0.70;;;;;;;;;;5081834;28;20116;-73
2021/04/27 07:33:58;;;;;;;2.17;0.97;;;;;;;;;;5085916;28;20032;-72
2021/04/27 07:36:23;;;;;;;5.80;1.10;;;;;;;;;;5086154;28;20058;-72
2021/04/27 07:38:49;;;;;;;2.63;1.13;;;;;;;;;;5086974;28;20038;-71
2021/04/27 07:41:14;;;;;;;3.50;1.17;;;;;;;;;;5094349;28;20077;-71
2021/04/27 07:43:39;;;;;;;2.13;1.10;;;;;;;;;;5089982;28;20039;-71
2021/04/27 07:46:04;;;;;;;3.20;0.97;;;;;;;;;;5090702;28;20028;-71
2021/04/27 07:48:30;;;;;;;4.60;0.87;;;;;;;;;;5090894;28;20050;-72
2021/04/27 07:50:56;;;;;;;2.13;0.90;;;;;;;;;;5089596;28;20034;-72
2021/04/27 07:53:21;;;;;;;8.17;1.13;;;;;;;;;;5082688;28;20461;-72
2021/04/27 07:55:47;;;;;;;2.33;0.70;;;;;;;;;;5090996;28;20020;-74
2021/04/27 07:58:12;;;;;;;1.93;0.90;;;;;;;;;;5089443;28;20024;-75
2021/04/27 08:00:38;;;;;;;4.27;1.03;;;;;;;;;;5088685;28;20487;-75
2021/04/27 08:03:03;;;;;;;2.97;0.90;;;;;;;;;;5080384;28;20024;-75
2021/04/27 08:05:28;;;;;;;3.63;1.07;;;;;;;;;;5087193;28;20108;-76
2021/04/27 08:07:54;;;;;;;7.53;1.00;;;;;;;;;;5087612;28;20036;-76
2021/04/27 08:10:20;;;;;;;3.33;1.10;;;;;;;;;;5090165;28;20060;-75
2021/04/27 08:12:46;;;;;;;3.10;1.20;;;;;;;;;;5090156;28;20028;-75
2021/04/27 08:15:13;;;;;;;4.30;1.33;;;;;;;;;;5088416;28;20034;-75
2021/04/27 08:17:38;;;;;;;2.53;1.03;;;;;;;;;;5085861;28;20379;-75
2021/04/27 08:20:05;;;;;;;2.63;0.90;;;;;;;;;;5093975;28;20028;-76
2021/04/27 08:22:30;;;;;;;3.10;0.90;;;;;;;;;;5089189;28;20373;-76
2021/04/27 08:24:55;;;;;;;2.80;1.00;;;;;;;;;;5080559;28;20039;-76
2021/04/27 08:27:20;;;;;;;3.23;1.23;;;;;;;;;;5090758;28;20028;-75
2021/04/27 08:29:46;;;;;;;3.10;0.90;;;;;;;;;;5090969;28;20484;-76
2021/04/27 08:32:12;;;;;;;2.93;0.80;;;;;;;;;;5090639;28;20116;-74
2021/04/27 08:34:37;;;;;;;8.87;1.00;;;;;;;;;;5094798;28;20042;-74
2021/04/27 08:37:02;;;;;;;3.73;0.80;;;;;;;;;;5094674;28;20035;-75
2021/04/27 08:39:28;;;;;;;1.87;0.80;;;;;;;;;;5088706;28;20077;-75
2021/04/27 08:41:53;;;;;;;3.57;0.87;;;;;;;;;;5086811;28;20020;-75
2021/04/27 08:44:19;;;;;;;2.10;0.83;;;;;;;;;;5089013;28;20048;-76
2021/04/27 08:46:44;;;;;;;3.97;1.00;;;;;;;;;;5094220;28;20063;-75
2021/04/27 08:49:10;;;;;;;2.87;0.83;;;;;;;;;;5092183;28;20556;-74
2021/04/27 08:51:35;;;;;;;1.87;0.80;;;;;;;;;;5090801;28;20028;-74
2021/04/27 08:54:03;;;;;;;4.00;1.00;;;;;;;;;;5085235;28;20130;-74
2021/04/27 08:56:29;;;;;;;2.40;0.80;;;;;;;;;;5086240;28;20020;-76
2021/04/27 08:58:54;;;;;;;2.67;0.80;;;;;;;;;;5095528;28;20055;-77
2021/04/27 09:01:20;;;;;;;1.50;0.60;;;;;;;;;;5090030;28;20047;-76
2021/04/27 09:03:46;;;;;;;1.27;0.60;;;;;;;;;;5090913;28;20048;-74
2021/04/27 09:06:12;;;;;;;1.87;0.83;;;;;;;;;;5054058;28;20046;-75
2021/04/27 09:08:39;;;;;;;3.13;0.90;;;;;;;;;;5092533;28;20028;-73
2021/04/27 09:11:23;;;;;;;2.20;0.90;;;;;;;;;;5090473;28;20024;-75
2021/04/27 09:14:04;;;;;;;3.63;0.83;;;;;;;;;;5079579;28;20028;-75
2021/04/27 09:16:30;;;;;;;1.67;0.70;;;;;;;;;;5089609;28;20024;-75
2021/04/27 09:18:55;;;;;;;5.43;0.90;;;;;;;;;;5090358;28;20028;-75
2021/04/27 09:21:20;;;;;;;2.17;0.80;;;;;;;;;;5089561;28;20016;-75
2021/04/27 09:23:45;;;;;;;7.60;1.20;;;;;;;;;;5089920;28;20028;-75
2021/04/27 09:26:15;;;;;;;10.97;1.00;;;;;;;;;;5090544;28;20040;-75
2021/04/27 09:28:42;;;;;;;2.95;1.23;;;;;;;;;;5070624;28;20032;-75
2021/04/27 09:31:24;;;;;;;2.60;1.00;;;;;;;;;;5089147;28;20503;-75
2021/04/27 09:33:50;;;;;;;3.15;1.00;;;;;;;;;;5072419;28;20046;-73
2021/04/27 09:36:22;;;;;;;1.60;0.70;;;;;;;;;;5090555;28;20035;-73
2021/04/27 09:38:52;;;;;;;2.17;0.70;;;;;;;;;;5087111;28;20055;-73
2021/04/27 09:41:22;;;;;;;1.87;0.80;;;;;;;;;;5080460;28;20495;-75
2021/04/27 09:43:47;;;;;;;5.93;0.80;;;;;;;;;;5089917;28;20028;-73
2021/04/27 09:46:17;;;;;;;1.83;0.80;;;;;;;;;;5090000;28;20043;-73
2021/04/27 09:48:44;;;;;;;1.60;0.80;;;;;;;;;;5089016;28;20027;-73
2021/04/27 09:51:12;;;;;;;1.37;0.63;;;;;;;;;;5090960;28;20100;-73
2021/04/27 09:53:58;;;;;;;2.37;0.90;;;;;;;;;;5086111;28;20059;-73
2021/04/27 09:56:34;;;;;;;1.47;0.80;;;;;;;;;;5086811;28;20089;-73
2021/04/27 09:59:02;;;;;;;2.20;0.80;;;;;;;;;;5090277;28;20020;-73
2021/04/27 10:01:27;;;;;;;1.50;0.80;;;;;;;;;;5086152;28;20016;-72
2021/04/27 10:03:53;;;;;;;1.90;0.87;;;;;;;;;;5087706;28;20038;-72
2021/04/27 10:06:18;;;;;;;1.90;0.80;;;;;;;;;;5089638;28;20078;-72
2021/04/27 10:08:43;;;;;;;6.15;0.90;;;;;;;;;;5092273;28;20038;-72
2021/04/27 10:11:09;;;;;;;5.20;1.08;;;;;;;;;;5088864;28;20452;-71
2021/04/27 10:13:35;;;;;;;4.97;1.00;;;;;;;;;;5088312;28;20472;-71
2021/04/27 10:16:00;;;;;;;2.67;0.80;;;;;;;;;;5088285;28;20028;-71
2021/04/27 10:18:30;;;;;;;4.03;1.00;;;;;;;;;;5089242;28;20035;-70
2021/04/27 10:20:58;;;;;;;3.17;1.00;;;;;;;;;;5087821;28;20028;-71
2021/04/27 10:23:23;;;;;;;2.20;0.97;;;;;;;;;;5089988;28;20067;-71
2021/04/27 10:25:51;;;;;;;2.65;1.10;;;;;;;;;;5086090;28;20440;-72
2021/04/27 10:28:16;;;;;;;1.80;0.90;;;;;;;;;;5086286;28;20031;-72
2021/04/27 10:30:43;;;;;;;3.17;1.10;;;;;;;;;;5078349;28;20081;-71
2021/04/27 10:33:11;;;;;;;6.85;1.20;;;;;;;;;;5086880;28;20601;-71
2021/04/27 10:35:40;;;;;;;2.25;1.00;;;;;;;;;;5088580;28;20054;-69
2021/04/27 10:38:18;;;;;;;2.50;1.10;;;;;;;;;;5088775;28;20038;-70
2021/04/27 10:40:48;;;;;;;2.95;1.10;;;;;;;;;;5086790;28;20545;-70
2021/04/27 10:43:26;;;;;;;2.90;1.17;;;;;;;;;;5086812;28;20024;-69
2021/04/27 10:45:55;;;;;;;4.55;1.10;;;;;;;;;;5088025;28;20408;-69
2021/04/27 10:48:28;;;;;;;3.42;1.02;;;;;;;;;;5086521;28;20028;-70
2021/04/27 10:50:53;;;;;;;2.15;1.00;;;;;;;;;;5082440;28;20028;-71
2021/04/27 10:53:48;;;;;;;2.80;1.00;;;;;;;;;;5069395;28;20035;-70
2021/04/27 10:56:31;;;;;;;4.60;1.10;;;;;;;;;;5065150;28;20048;-70
2021/04/27 10:59:03;;;;;;;8.05;1.58;;;;;;;;;;5087366;28;20058;-69
2021/04/27 11:01:29;;;;;;;2.47;1.10;;;;;;;;;;5088770;28;20036;-69
2021/04/27 11:03:56;;;;;;;4.97;1.67;;;;;;;;;;5084873;28;20054;-69
2021/04/27 11:06:21;;;;;;;1.70;0.80;;;;;;;;;;5088345;28;20032;-69
2021/04/27 11:08:51;;;;;;;2.67;1.03;;;;;;;;;;5091612;28;20122;-69
2021/04/27 11:11:17;;;;;;;5.00;1.10;;;;;;;;;;5086303;28;20426;-69
2021/04/27 11:13:43;;;;;;;3.90;1.17;;;;;;;;;;5086560;28;20042;-69
2021/04/27 11:16:30;;;;;;;4.23;1.47;;;;;;;;;;5086326;28;20401;-69
2021/04/27 11:19:10;;;;;;;3.20;1.30;;;;;;;;;;5087387;28;20023;-69
2021/04/27 11:21:36;;;;;;;2.30;1.17;;;;;;;;;;5082877;28;20024;-68
2021/04/27 11:24:07;;;;;;;3.27;1.40;;;;;;;;;;5088447;28;20024;-68
2021/04/27 11:26:32;;;;;;;7.60;1.47;;;;;;;;;;5088803;28;20028;-68
2021/04/27 11:29:04;;;;;;;2.23;1.10;;;;;;;;;;5088570;28;20035;-69
2021/04/27 11:31:30;;;;;;;3.97;1.38;;;;;;;;;;5088761;28;20403;-68
2021/04/27 11:33:55;;;;;;;3.80;1.30;;;;;;;;;;5088621;28;20038;-68
2021/04/27 11:36:36;;;;;;;3.60;1.20;;;;;;;;;;5086843;28;20019;-68
2021/04/27 11:39:28;;;;;;;2.25;1.20;;;;;;;;;;5082006;28;20028;-68
2021/04/27 11:41:55;;;;;;;4.75;1.25;;;;;;;;;;5083730;28;20058;-67
2021/04/27 11:44:22;;;;;;;7.10;1.57;;;;;;;;;;5087460;28;20076;-67
2021/04/27 11:46:53;;;;;;;3.17;1.10;;;;;;;;;;5087310;28;20039;-67
2021/04/27 11:49:18;;;;;;;3.47;1.38;;;;;;;;;;5088308;28;20052;-67
2021/04/27 11:51:44;;;;;;;3.00;1.30;;;;;;;;;;5087925;28;20048;-68
2021/04/27 11:54:10;;;;;;;4.10;1.60;;;;;;;;;;5088111;28;20031;-67
2021/04/27 11:56:48;;;;;;;5.80;1.57;;;;;;;;;;5085474;28;20035;-68
2021/04/27 11:59:17;;;;;;;2.67;1.40;;;;;;;;;;5083195;28;20567;-67
2021/04/27 12:01:43;;;;;;;3.97;1.40;;;;;;;;;;5083702;28;20158;-67
2021/04/27 12:04:09;;;;;;;2.50;1.20;;;;;;;;;;5084154;28;20139;-67
2021/04/27 12:06:34;;;;;;;3.33;1.30;;;;;;;;;;5084805;28;20042;-67
2021/04/27 12:09:02;;;;;;;4.22;1.50;;;;;;;;;;5088764;28;20035;-68
2021/04/27 12:11:32;;;;;;;4.60;1.57;;;;;;;;;;5084908;28;20092;-67
2021/04/27 12:14:06;;;;;;;4.20;1.33;;;;;;;;;;5088268;28;20020;-67
2021/04/27 12:16:31;;;;;;;7.07;1.83;;;;;;;;;;5086633;28;20035;-67
2021/04/27 12:18:59;;;;;;;3.17;1.30;;;;;;;;;;5086250;28;20396;-67
2021/04/27 12:21:31;;;;;;;3.07;1.40;;;;;;;;;;5082378;28;20028;-67
2021/04/27 12:24:05;;;;;;;3.10;1.35;;;;;;;;;;5085898;28;20020;-67
2021/04/27 12:26:31;;;;;;;4.43;1.33;;;;;;;;;;5089459;28;20032;-67
2021/04/27 12:28:57;;;;;;;4.77;1.60;;;;;;;;;;5084605;28;20035;-67
2021/04/27 12:31:23;;;;;;;2.73;1.47;;;;;;;;;;5086557;28;20024;-67
2021/04/27 12:33:56;;;;;;;4.70;1.47;;;;;;;;;;5078569;28;20480;-67
2021/04/27 12:36:21;;;;;;;;;;;;;;;;;;5088689;28;20024;-66
2021/04/27 12:38:46;;;;;;;4.96;1.62;;;;;;;;;;5081162;28;20069;-67
2021/04/27 12:41:11;;;;;;;5.77;1.60;;;;;;;;;;5090792;28;20432;-67
2021/04/27 12:43:38;;;;;;;5.00;1.40;;;;;;;;;;5091582;28;20035;-67
2021/04/27 12:46:06;;;;;;;3.10;1.50;;;;;;;;;;5089311;28;20020;-67
2021/04/27 12:48:32;;;;;;;5.90;1.67;;;;;;;;;;5086043;28;20035;-67
2021/04/27 12:51:07;;;;;;;2.73;1.43;;;;;;;;;;5090895;28;20135;-67
2021/04/27 12:53:40;;;;;;;3.80;1.70;;;;;;;;;;5090591;28;20028;-67
2021/04/27 12:56:09;;;;;;;3.37;1.57;;;;;;;;;;5090806;28;20063;-66
2021/04/27 12:58:35;;;;;;;3.80;1.53;;;;;;;;;;5091205;28;20079;-66
2021/04/27 13:01:02;;;;;;;4.20;1.67;;;;;;;;;;5091496;28;20054;-66
2021/04/27 13:03:29;;;;;;;3.70;1.60;;;;;;;;;;5090916;28;20028;-66
2021/04/27 13:05:54;;;;;;;4.50;2.00;;;;;;;;;;5083275;28;20131;-66
2021/04/27 13:08:23;;;;;;;4.63;1.27;;;;;;;;;;5088920;28;20512;-67
2021/04/27 13:10:49;;;;;;;4.27;1.40;;;;;;;;;;5089944;28;20448;-66
2021/04/27 13:13:21;;;;;;;4.07;1.53;;;;;;;;;;5092196;28;20098;-66
2021/04/27 13:15:57;;;;;;;4.00;1.60;;;;;;;;;;5090345;28;20035;-67
2021/04/27 13:18:23;;;;;;;2.93;1.33;;;;;;;;;;5087489;28;20059;-66
2021/04/27 13:20:49;;;;;;;2.83;1.30;;;;;;;;;;5089891;28;20059;-66
2021/04/27 13:23:17;;;;;;;4.17;1.40;;;;;;;;;;5091225;28;20099;-66
2021/04/27 13:25:44;;;;;;;5.03;1.63;;;;;;;;;;5084849;28;20384;-66
2021/04/27 13:28:15;;;;;;;4.07;1.70;;;;;;;;;;5096612;28;20522;-66
2021/04/27 13:30:48;;;;;;;5.28;1.50;;;;;;;;;;5088962;28;20032;-66
2021/04/27 13:33:14;;;;;;;4.07;1.47;;;;;;;;;;5085869;28;20033;-66
2021/04/27 13:35:40;;;;;;;3.37;1.57;;;;;;;;;;5085888;28;20082;-66
2021/04/27 13:38:07;;;;;;;3.60;1.30;;;;;;;;;;5090599;28;20396;-66
2021/04/27 13:40:32;;;;;;;3.63;1.33;;;;;;;;;;5090465;28;20016;-66
2021/04/27 13:43:00;;;;;;;3.63;1.63;;;;;;;;;;5090677;28;20500;-66
2021/04/27 13:45:29;;;;;;;4.17;1.50;;;;;;;;;;5090855;28;20040;-66
2021/04/27 13:47:55;;;;;;;2.97;1.50;;;;;;;;;;5090660;28;20020;-66
2021/04/27 13:50:20;;;;;;;2.80;1.40;;;;;;;;;;5090555;28;20405;-66
2021/04/27 13:52:45;;;;;;;4.23;1.47;;;;;;;;;;5088783;28;20393;-66
2021/04/27 13:55:11;;;;;;;3.90;1.37;;;;;;;;;;5088374;28;20115;-65
2021/04/27 13:57:37;;;;;;;3.73;1.20;;;;;;;;;;5086928;28;20028;-66
2021/04/27 14:00:04;;;;;;;3.93;1.50;;;;;;;;;;5089118;28;20074;-66
2021/04/27 14:02:29;;;;;;;4.67;1.60;;;;;;;;;;5086651;28;20669;-66
2021/04/27 14:04:54;;;;;;;2.97;1.47;;;;;;;;;;5085253;28;20446;-65
2021/04/27 14:07:20;;;;;;;13.13;1.80;;;;;;;;;;5089994;28;20093;-66
2021/04/27 14:09:45;;;;;;;3.10;1.43;;;;;;;;;;5091788;28;20068;-66
2021/04/27 14:12:10;;;;;;;4.47;1.50;;;;;;;;;;5087193;28;20036;-65
2021/04/27 14:14:36;;;;;;;3.20;1.50;;;;;;;;;;5086318;28;20043;-65
2021/04/27 14:17:01;;;;;;;2.83;1.40;;;;;;;;;;5087005;28;20035;-65
2021/04/27 14:19:26;;;;;;;5.07;1.60;;;;;;;;;;5086813;28;20441;-65
2021/04/27 14:21:51;;;;;;;4.37;1.60;;;;;;;;;;5087855;28;20039;-65
2021/04/27 14:24:17;;;;;;;5.57;1.60;;;;;;;;;;5089135;28;20031;-65
2021/04/27 14:26:42;;;;;;;3.13;1.37;;;;;;;;;;5088499;28;20160;-65
2021/04/27 14:29:07;;;;;;;3.53;1.57;;;;;;;;;;5087746;28;20370;-65
2021/04/27 14:31:33;;;;;;;3.70;1.27;;;;;;;;;;5088996;28;20035;-65
2021/04/27 14:33:58;;;;;;;4.00;1.37;;;;;;;;;;5088040;28;20027;-65
2021/04/27 14:36:24;;;;;;;4.07;1.67;;;;;;;;;;5087281;28;20468;-65
2021/04/27 14:38:49;;;;;;;2.87;1.47;;;;;;;;;;5085562;28;20036;-65
2021/04/27 14:41:15;;;;;;;4.63;1.60;;;;;;;;;;5088549;28;20024;-65